sensor_id;sensor_type;location;lat;lon;timestamp;pressure;altitude;pressure_sealevel;temperature;humidity
11985;BME280;6052;53.246;10.368;2023-05-23T00:01:54;100749.34;;;22.82;80.73
11985;BME280;6052;53.246;10.368;2023-05-23T00:04:24;100754.53;;;22.84;81.08
11985;BME280;6052;53.246;10.368;2023-05-23T00:06:53;100750.63;;;22.76;81.00
11985;BME280;6052;53.246;10.368;2023-05-23T00:09:23;100747.22;;;22.71;82.23
11985;BME280;6052;53.246;10.368;2023-05-23T00:11:52;100753.22;;;22.81;81.60
11985;BME280;6052;53.246;10.368;2023-05-23T00:14:22;100754.81;;;22.74;81.34
11985;BME280;6052;53.246;10.368;2023-05-23T00:16:54;100750.25;;;22.69;81.64
11985;BME280;6052;53.246;10.368;2023-05-23T00:19:25;100744.03;;;22.77;81.37
11985;BME280;6052;53.246;10.368;2023-05-23T00:21:54;100733.94;;;22.56;82.89
11985;BME280;6052;53.246;10.368;2023-05-23T00:24:26;100738.94;;;22.54;82.39
11985;BME280;6052;53.246;10.368;2023-05-23T00:26:56;100741.19;;;22.60;81.96
11985;BME280;6052;53.246;10.368;2023-05-23T00:29:25;100733.31;;;22.59;81.63
11985;BME280;6052;53.246;10.368;2023-05-23T00:31:57;100738.19;;;22.70;80.86
11985;BME280;6052;53.246;10.368;2023-05-23T00:34:26;100738.81;;;22.67;80.85
11985;BME280;6052;53.246;10.368;2023-05-23T00:36:56;100722.81;;;22.52;81.53
11985;BME280;6052;53.246;10.368;2023-05-23T00:39:25;100735.91;;;22.64;81.13
11985;BME280;6052;53.246;10.368;2023-05-23T00:41:54;100732.22;;;22.68;80.11
11985;BME280;6052;53.246;10.368;2023-05-23T00:44:24;100735.28;;;22.75;79.62
11985;BME280;6052;53.246;10.368;2023-05-23T00:46:57;100734.34;;;22.71;80.02
11985;BME280;6052;53.246;10.368;2023-05-23T00:49:27;100731.31;;;22.81;79.55
11985;BME280;6052;53.246;10.368;2023-05-23T00:51:57;100733.72;;;22.83;78.87
11985;BME280;6052;53.246;10.368;2023-05-23T00:54:28;100730.50;;;22.81;78.57
11985;BME280;6052;53.246;10.368;2023-05-23T00:56:58;100738.03;;;22.75;79.77
11985;BME280;6052;53.246;10.368;2023-05-23T00:59:29;100739.84;;;22.80;79.33
11985;BME280;6052;53.246;10.368;2023-05-23T01:02:01;100739.47;;;22.73;79.60
11985;BME280;6052;53.246;10.368;2023-05-23T01:04:31;100730.63;;;22.67;80.34
11985;BME280;6052;53.246;10.368;2023-05-23T01:07:01;100727.50;;;22.60;79.92
11985;BME280;6052;53.246;10.368;2023-05-23T01:09:31;100727.50;;;22.60;80.18
11985;BME280;6052;53.246;10.368;2023-05-23T01:12:13;100732.38;;;22.72;79.64
11985;BME280;6052;53.246;10.368;2023-05-23T01:14:48;100723.81;;;22.56;80.69
11985;BME280;6052;53.246;10.368;2023-05-23T01:17:25;100726.56;;;22.56;81.20
11985;BME280;6052;53.246;10.368;2023-05-23T01:19:58;100723.16;;;22.59;80.21
11985;BME280;6052;53.246;10.368;2023-05-23T01:23:25;100705.63;;;22.60;79.64
11985;BME280;6052;53.246;10.368;2023-05-23T01:26:06;100706.56;;;22.56;80.32
11985;BME280;6052;53.246;10.368;2023-05-23T01:28:45;100712.88;;;22.56;80.07
11985;BME280;6052;53.246;10.368;2023-05-23T01:31:16;100714.34;;;22.62;79.57
11985;BME280;6052;53.246;10.368;2023-05-23T01:33:48;100720.59;;;22.63;80.18
11985;BME280;6052;53.246;10.368;2023-05-23T01:36:19;100723.13;;;22.51;81.28
11985;BME280;6052;53.246;10.368;2023-05-23T01:38:49;100723.94;;;22.51;80.96
11985;BME280;6052;53.246;10.368;2023-05-23T01:41:18;100717.53;;;22.56;80.71
11985;BME280;6052;53.246;10.368;2023-05-23T01:43:50;100716.38;;;22.57;80.54
11985;BME280;6052;53.246;10.368;2023-05-23T01:46:20;100716.09;;;22.58;80.61
11985;BME280;6052;53.246;10.368;2023-05-23T01:48:50;100710.28;;;22.51;81.13
11985;BME280;6052;53.246;10.368;2023-05-23T01:51:22;100722.81;;;22.52;81.52
11985;BME280;6052;53.246;10.368;2023-05-23T01:53:53;100718.78;;;22.50;81.52
11985;BME280;6052;53.246;10.368;2023-05-23T01:56:26;100718.69;;;22.41;82.64
11985;BME280;6052;53.246;10.368;2023-05-23T01:58:58;100718.13;;;22.52;81.96
11985;BME280;6052;53.246;10.368;2023-05-23T02:01:28;100715.47;;;22.39;82.64
11985;BME280;6052;53.246;10.368;2023-05-23T02:03:58;100719.91;;;22.49;82.45
11985;BME280;6052;53.246;10.368;2023-05-23T02:06:27;100718.28;;;22.48;82.67
11985;BME280;6052;53.246;10.368;2023-05-23T02:08:57;100711.75;;;22.35;83.29
11985;BME280;6052;53.246;10.368;2023-05-23T02:11:28;100715.47;;;22.39;83.12
11985;BME280;6052;53.246;10.368;2023-05-23T02:14:00;100716.97;;;22.45;82.39
11985;BME280;6052;53.246;10.368;2023-05-23T02:16:33;100718.88;;;21.92;87.12
11985;BME280;6052;53.246;10.368;2023-05-23T02:19:03;100717.00;;;22.23;84.41
11985;BME280;6052;53.246;10.368;2023-05-23T02:21:33;100713.06;;;21.85;87.83
11985;BME280;6052;53.246;10.368;2023-05-23T02:24:05;100715.41;;;22.00;86.57
11985;BME280;6052;53.246;10.368;2023-05-23T02:26:36;100725.25;;;21.79;86.78
11985;BME280;6052;53.246;10.368;2023-05-23T02:29:09;100729.69;;;21.97;86.02
11985;BME280;6052;53.246;10.368;2023-05-23T02:31:42;100730.56;;;22.06;85.95
11985;BME280;6052;53.246;10.368;2023-05-23T02:34:11;100732.91;;;21.77;87.70
11985;BME280;6052;53.246;10.368;2023-05-23T02:36:41;100735.97;;;21.40;90.17
11985;BME280;6052;53.246;10.368;2023-05-23T02:39:10;100733.56;;;21.60;88.14
11985;BME280;6052;53.246;10.368;2023-05-23T02:41:40;100739.50;;;21.76;87.15
11985;BME280;6052;53.246;10.368;2023-05-23T02:44:14;100736.78;;;21.76;86.33
11985;BME280;6052;53.246;10.368;2023-05-23T02:46:45;100735.53;;;21.82;84.55
11985;BME280;6052;53.246;10.368;2023-05-23T02:49:15;100742.63;;;21.83;84.51
11985;BME280;6052;53.246;10.368;2023-05-23T02:51:44;100737.28;;;21.78;84.22
11985;BME280;6052;53.246;10.368;2023-05-23T02:54:13;100734.56;;;21.78;84.17
11985;BME280;6052;53.246;10.368;2023-05-23T02:56:43;100732.25;;;21.71;84.54
11985;BME280;6052;53.246;10.368;2023-05-23T02:59:15;100733.13;;;21.67;84.57
11985;BME280;6052;53.246;10.368;2023-05-23T03:01:45;100727.31;;;21.82;83.49
11985;BME280;6052;53.246;10.368;2023-05-23T03:04:14;100736.91;;;21.71;83.84
11985;BME280;6052;53.246;10.368;2023-05-23T03:06:44;100740.34;;;21.76;83.14
11985;BME280;6052;53.246;10.368;2023-05-23T03:09:14;100737.41;;;21.59;84.04
11985;BME280;6052;53.246;10.368;2023-05-23T03:11:45;100735.53;;;21.46;84.44
11985;BME280;6052;53.246;10.368;2023-05-23T03:14:17;100742.91;;;21.46;85.16
11985;BME280;6052;53.246;10.368;2023-05-23T03:16:46;100743.84;;;21.41;85.35
11985;BME280;6052;53.246;10.368;2023-05-23T03:19:16;100742.53;;;21.39;84.92
11985;BME280;6052;53.246;10.368;2023-05-23T03:21:45;100744.72;;;21.15;86.26
11985;BME280;6052;53.246;10.368;2023-05-23T03:24:16;100740.50;;;21.44;83.72
11985;BME280;6052;53.246;10.368;2023-05-23T03:26:46;100735.97;;;21.40;83.68
11985;BME280;6052;53.246;10.368;2023-05-23T03:29:18;100734.34;;;21.39;83.89
11985;BME280;6052;53.246;10.368;2023-05-23T03:31:47;100732.38;;;21.17;84.49
11985;BME280;6052;53.246;10.368;2023-05-23T03:34:17;100728.66;;;21.00;86.48
11985;BME280;6052;53.246;10.368;2023-05-23T03:36:46;100732.38;;;21.17;84.95
11985;BME280;6052;53.246;10.368;2023-05-23T03:39:16;100729.06;;;20.93;86.88
11985;BME280;6052;53.246;10.368;2023-05-23T03:41:45;100739.25;;;21.01;85.90
11985;BME280;6052;53.246;10.368;2023-05-23T03:44:18;100745.00;;;21.13;85.70
11985;BME280;6052;53.246;10.368;2023-05-23T03:46:47;100740.34;;;21.00;86.25
11985;BME280;6052;53.246;10.368;2023-05-23T03:49:16;100732.69;;;21.02;86.39
11985;BME280;6052;53.246;10.368;2023-05-23T03:51:46;100733.00;;;21.01;86.09
11985;BME280;6052;53.246;10.368;2023-05-23T03:54:15;100733.38;;;20.81;87.50
11985;BME280;6052;53.246;10.368;2023-05-23T03:56:45;100726.41;;;20.88;86.75
11985;BME280;6052;53.246;10.368;2023-05-23T03:59:17;100730.03;;;20.84;87.20
11985;BME280;6052;53.246;10.368;2023-05-23T04:01:47;100729.22;;;20.83;86.03
11985;BME280;6052;53.246;10.368;2023-05-23T04:04:16;100731.34;;;20.59;88.24
11985;BME280;6052;53.246;10.368;2023-05-23T04:06:46;100736.91;;;20.68;87.03
11985;BME280;6052;53.246;10.368;2023-05-23T04:09:16;100726.81;;;20.68;87.24
11985;BME280;6052;53.246;10.368;2023-05-23T04:11:45;100732.44;;;20.85;86.10
11985;BME280;6052;53.246;10.368;2023-05-23T04:14:18;100734.56;;;20.75;85.88
11985;BME280;6052;53.246;10.368;2023-05-23T04:16:48;100736.78;;;20.86;85.13
11985;BME280;6052;53.246;10.368;2023-05-23T04:19:18;100733.34;;;20.67;86.33
11985;BME280;6052;53.246;10.368;2023-05-23T04:21:47;100741.34;;;20.77;84.88
11985;BME280;6052;53.246;10.368;2023-05-23T04:24:17;100738.31;;;20.52;87.02
11985;BME280;6052;53.246;10.368;2023-05-23T04:26:46;100733.63;;;20.39;86.92
11985;BME280;6052;53.246;10.368;2023-05-23T04:29:18;100739.31;;;20.56;85.80
11985;BME280;6052;53.246;10.368;2023-05-23T04:31:48;100739.19;;;20.34;87.89
11985;BME280;6052;53.246;10.368;2023-05-23T04:34:17;100739.81;;;20.44;86.66
11985;BME280;6052;53.246;10.368;2023-05-23T04:36:48;100738.81;;;20.54;86.20
11985;BME280;6052;53.246;10.368;2023-05-23T04:39:19;100738.53;;;20.23;86.49
11985;BME280;6052;53.246;10.368;2023-05-23T04:41:48;100742.06;;;20.56;85.17
11985;BME280;6052;53.246;10.368;2023-05-23T04:44:22;100741.78;;;20.25;86.38
11985;BME280;6052;53.246;10.368;2023-05-23T04:46:52;100743.13;;;20.41;85.48
11985;BME280;6052;53.246;10.368;2023-05-23T04:49:22;100738.06;;;20.35;85.73
11985;BME280;6052;53.246;10.368;2023-05-23T04:51:52;100742.56;;;20.58;84.27
11985;BME280;6052;53.246;10.368;2023-05-23T04:54:21;100742.16;;;20.51;85.09
11985;BME280;6052;53.246;10.368;2023-05-23T04:56:51;100742.09;;;20.37;85.63
11985;BME280;6052;53.246;10.368;2023-05-23T04:59:23;100747.16;;;20.44;84.69
11985;BME280;6052;53.246;10.368;2023-05-23T05:01:53;100752.00;;;20.33;85.21
11985;BME280;6052;53.246;10.368;2023-05-23T05:04:22;100752.88;;;20.61;84.63
11985;BME280;6052;53.246;10.368;2023-05-23T05:06:51;100756.03;;;20.04;85.89
11985;BME280;6052;53.246;10.368;2023-05-23T05:09:21;100759.97;;;20.30;85.92
11985;BME280;6052;53.246;10.368;2023-05-23T05:11:51;100752.53;;;20.35;85.28
11985;BME280;6052;53.246;10.368;2023-05-23T05:14:24;100749.06;;;19.98;86.54
11985;BME280;6052;53.246;10.368;2023-05-23T05:16:54;100755.28;;;19.98;86.98
11985;BME280;6052;53.246;10.368;2023-05-23T05:19:24;100756.69;;;19.96;86.99
11985;BME280;6052;53.246;10.368;2023-05-23T05:21:54;100765.72;;;19.78;87.84
11985;BME280;6052;53.246;10.368;2023-05-23T05:24:25;100758.91;;;19.94;87.07
11985;BME280;6052;53.246;10.368;2023-05-23T05:26:55;100766.81;;;19.77;87.64
11985;BME280;6052;53.246;10.368;2023-05-23T05:29:28;100766.66;;;19.87;87.47
11985;BME280;6052;53.246;10.368;2023-05-23T05:31:59;100766.19;;;19.98;86.84
11985;BME280;6052;53.246;10.368;2023-05-23T05:34:29;100759.00;;;20.07;85.74
11985;BME280;6052;53.246;10.368;2023-05-23T05:36:58;100765.88;;;20.18;85.17
11985;BME280;6052;53.246;10.368;2023-05-23T05:39:28;100766.50;;;20.15;85.56
11985;BME280;6052;53.246;10.368;2023-05-23T05:41:57;100760.84;;;20.12;85.29
11985;BME280;6052;53.246;10.368;2023-05-23T05:44:31;100768.53;;;20.23;84.23
11985;BME280;6052;53.246;10.368;2023-05-23T05:47:01;100766.88;;;20.09;85.79
11985;BME280;6052;53.246;10.368;2023-05-23T05:49:30;100773.44;;;19.71;89.06
11985;BME280;6052;53.246;10.368;2023-05-23T05:52:00;100774.97;;;19.77;87.48
11985;BME280;6052;53.246;10.368;2023-05-23T05:54:29;100779.34;;;19.78;87.48
11985;BME280;6052;53.246;10.368;2023-05-23T05:56:58;100769.38;;;19.87;87.42
11985;BME280;6052;53.246;10.368;2023-05-23T05:59:32;100768.41;;;19.96;86.43
11985;BME280;6052;53.246;10.368;2023-05-23T06:02:01;100783.00;;;19.87;87.22
11985;BME280;6052;53.246;10.368;2023-05-23T06:04:31;100786.97;;;19.94;86.97
11985;BME280;6052;53.246;10.368;2023-05-23T06:07:00;100779.78;;;19.85;87.41
11985;BME280;6052;53.246;10.368;2023-05-23T06:09:30;100776.38;;;19.93;87.26
11985;BME280;6052;53.246;10.368;2023-05-23T06:11:59;100780.94;;;19.97;86.62
11985;BME280;6052;53.246;10.368;2023-05-23T06:14:28;100777.00;;;20.03;86.29
11985;BME280;6052;53.246;10.368;2023-05-23T06:17:01;100786.25;;;19.89;86.76
11985;BME280;6052;53.246;10.368;2023-05-23T06:19:31;100776.97;;;19.90;87.50
11985;BME280;6052;53.246;10.368;2023-05-23T06:22:00;100782.25;;;20.00;86.74
11985;BME280;6052;53.246;10.368;2023-05-23T06:24:30;100781.19;;;19.64;90.29
11985;BME280;6052;53.246;10.368;2023-05-23T06:26:59;100780.50;;;19.72;89.63
11985;BME280;6052;53.246;10.368;2023-05-23T06:29:29;100776.31;;;19.98;87.04
11985;BME280;6052;53.246;10.368;2023-05-23T06:32:01;100783.53;;;19.89;88.15
11985;BME280;6052;53.246;10.368;2023-05-23T06:34:31;100782.28;;;19.81;89.18
11985;BME280;6052;53.246;10.368;2023-05-23T06:37:00;100779.25;;;19.64;90.92
11985;BME280;6052;53.246;10.368;2023-05-23T06:39:30;100784.91;;;19.49;92.50
11985;BME280;6052;53.246;10.368;2023-05-23T06:41:59;100785.16;;;19.71;91.00
11985;BME280;6052;53.246;10.368;2023-05-23T06:44:29;100784.25;;;19.76;90.12
11985;BME280;6052;53.246;10.368;2023-05-23T06:47:01;100782.84;;;19.78;89.97
11985;BME280;6052;53.246;10.368;2023-05-23T06:49:31;100779.81;;;19.43;91.66
11985;BME280;6052;53.246;10.368;2023-05-23T06:52:00;100770.03;;;19.60;92.15
11985;BME280;6052;53.246;10.368;2023-05-23T06:54:29;100783.84;;;19.69;91.28
11985;BME280;6052;53.246;10.368;2023-05-23T06:56:59;100778.13;;;19.65;91.98
11985;BME280;6052;53.246;10.368;2023-05-23T06:59:28;100773.44;;;19.71;91.68
11985;BME280;6052;53.246;10.368;2023-05-23T07:02:00;100776.63;;;19.78;90.53
11985;BME280;6052;53.246;10.368;2023-05-23T07:04:30;100777.06;;;19.66;92.07
11985;BME280;6052;53.246;10.368;2023-05-23T07:06:59;100773.44;;;19.71;91.75
11985;BME280;6052;53.246;10.368;2023-05-23T07:09:28;100765.72;;;19.78;91.23
11985;BME280;6052;53.246;10.368;2023-05-23T07:11:58;100776.88;;;19.58;92.68
11985;BME280;6052;53.246;10.368;2023-05-23T07:14:27;100780.50;;;19.72;92.05
11985;BME280;6052;53.246;10.368;2023-05-23T07:16:57;100773.09;;;19.59;93.27
11985;BME280;6052;53.246;10.368;2023-05-23T07:19:29;100790.53;;;19.76;91.03
11985;BME280;6052;53.246;10.368;2023-05-23T07:21:58;100781.31;;;19.54;92.78
11985;BME280;6052;53.246;10.368;2023-05-23T07:24:29;100790.25;;;19.78;90.93
11985;BME280;6052;53.246;10.368;2023-05-23T07:26:58;100790.31;;;19.73;91.30
11985;BME280;6052;53.246;10.368;2023-05-23T07:29:27;100802.59;;;19.89;90.65
11985;BME280;6052;53.246;10.368;2023-05-23T07:31:57;100782.50;;;19.85;90.46
11985;BME280;6052;53.246;10.368;2023-05-23T07:34:29;100789.34;;;19.82;91.22
11985;BME280;6052;53.246;10.368;2023-05-23T07:36:59;100799.72;;;19.99;90.30
11985;BME280;6052;53.246;10.368;2023-05-23T07:39:28;100790.97;;;19.83;90.97
11985;BME280;6052;53.246;10.368;2023-05-23T07:41:58;100795.88;;;19.63;92.37
11985;BME280;6052;53.246;10.368;2023-05-23T07:44:29;100800.03;;;19.79;92.13
11985;BME280;6052;53.246;10.368;2023-05-23T07:46:59;100798.03;;;19.66;92.55
11985;BME280;6052;53.246;10.368;2023-05-23T07:49:32;100799.88;;;19.70;92.67
11985;BME280;6052;53.246;10.368;2023-05-23T07:52:02;100798.53;;;19.68;92.98
11985;BME280;6052;53.246;10.368;2023-05-23T07:54:32;100796.78;;;19.77;92.31
11985;BME280;6052;53.246;10.368;2023-05-23T07:57:02;100794.56;;;19.79;93.38
11985;BME280;6052;53.246;10.368;2023-05-23T07:59:32;100807.44;;;19.55;94.17
11985;BME280;6052;53.246;10.368;2023-05-23T08:02:02;100806.56;;;19.59;95.24
11985;BME280;6052;53.246;10.368;2023-05-23T08:04:34;100799.28;;;19.73;95.00
11985;BME280;6052;53.246;10.368;2023-05-23T08:07:06;100802.53;;;19.75;93.84
11985;BME280;6052;53.246;10.368;2023-05-23T08:09:37;100797.97;;;19.52;95.79
11985;BME280;6052;53.246;10.368;2023-05-23T08:12:06;100803.97;;;19.68;94.97
11985;BME280;6052;53.246;10.368;2023-05-23T08:14:36;100817.00;;;19.34;96.88
11985;BME280;6052;53.246;10.368;2023-05-23T08:17:17;100812.63;;;19.33;96.88
11985;BME280;6052;53.246;10.368;2023-05-23T08:19:49;100817.94;;;19.19;98.86
11985;BME280;6052;53.246;10.368;2023-05-23T08:22:19;100818.19;;;19.23;97.39
11985;BME280;6052;53.246;10.368;2023-05-23T08:24:48;100823.66;;;19.23;97.46
11985;BME280;6052;53.246;10.368;2023-05-23T08:27:17;100838.97;;;19.14;98.23
11985;BME280;6052;53.246;10.368;2023-05-23T08:29:47;100842.69;;;19.23;97.23
11985;BME280;6052;53.246;10.368;2023-05-23T08:32:16;100841.28;;;19.02;95.70
11985;BME280;6052;53.246;10.368;2023-05-23T08:34:46;100840.91;;;18.85;96.46
11985;BME280;6052;53.246;10.368;2023-05-23T08:37:18;100854.13;;;18.96;95.01
11985;BME280;6052;53.246;10.368;2023-05-23T08:39:47;100845.50;;;18.89;93.99
11985;BME280;6052;53.246;10.368;2023-05-23T08:42:17;100856.13;;;19.14;93.71
11985;BME280;6052;53.246;10.368;2023-05-23T08:44:47;100856.50;;;18.79;94.70
11985;BME280;6052;53.246;10.368;2023-05-23T08:47:18;100852.47;;;18.72;95.58
11985;BME280;6052;53.246;10.368;2023-05-23T08:49:50;100864.16;;;19.01;93.34
11985;BME280;6052;53.246;10.368;2023-05-23T08:52:24;100855.91;;;18.82;94.49
11985;BME280;6052;53.246;10.368;2023-05-23T08:54:55;100866.69;;;18.64;95.66
11985;BME280;6052;53.246;10.368;2023-05-23T08:57:26;100869.44;;;18.87;94.92
11985;BME280;6052;53.246;10.368;2023-05-23T08:59:56;100872.00;;;19.07;94.45
11985;BME280;6052;53.246;10.368;2023-05-23T09:02:27;100887.66;;;19.15;93.34
11985;BME280;6052;53.246;10.368;2023-05-23T09:04:57;100888.06;;;19.04;93.08
11985;BME280;6052;53.246;10.368;2023-05-23T09:07:30;100891.31;;;18.77;93.98
11985;BME280;6052;53.246;10.368;2023-05-23T09:09:59;100893.28;;;19.00;92.04
11985;BME280;6052;53.246;10.368;2023-05-23T09:12:28;100891.06;;;18.45;93.74
11985;BME280;6052;53.246;10.368;2023-05-23T09:14:59;100914.84;;;18.63;93.81
11985;BME280;6052;53.246;10.368;2023-05-23T09:17:30;100911.78;;;18.31;94.12
11985;BME280;6052;53.246;10.368;2023-05-23T09:19:59;100916.31;;;18.46;94.21
11985;BME280;6052;53.246;10.368;2023-05-23T09:22:32;100923.84;;;18.59;92.57
11985;BME280;6052;53.246;10.368;2023-05-23T09:25:02;100926.06;;;18.85;91.17
11985;BME280;6052;53.246;10.368;2023-05-23T09:27:31;100923.31;;;18.57;92.24
11985;BME280;6052;53.246;10.368;2023-05-23T09:30:05;100925.88;;;18.38;91.44
11985;BME280;6052;53.246;10.368;2023-05-23T09:32:36;100935.97;;;18.38;91.85
11985;BME280;6052;53.246;10.368;2023-05-23T09:35:06;100935.25;;;18.61;90.50
11985;BME280;6052;53.246;10.368;2023-05-23T09:37:43;100937.81;;;18.42;90.93
11985;BME280;6052;53.246;10.368;2023-05-23T09:40:14;100947.22;;;18.60;90.95
11985;BME280;6052;53.246;10.368;2023-05-23T09:42:45;100942.94;;;18.49;91.14
11985;BME280;6052;53.246;10.368;2023-05-23T09:45:15;100947.44;;;18.25;92.30
11985;BME280;6052;53.246;10.368;2023-05-23T09:47:48;100944.09;;;18.43;91.98
11985;BME280;6052;53.246;10.368;2023-05-23T09:50:19;100941.50;;;18.18;93.52
11985;BME280;6052;53.246;10.368;2023-05-23T09:52:51;100952.25;;;18.43;93.32
11985;BME280;6052;53.246;10.368;2023-05-23T09:55:21;100958.78;;;18.42;93.02
11985;BME280;6052;53.246;10.368;2023-05-23T09:57:52;100967.56;;;18.24;94.19
11985;BME280;6052;53.246;10.368;2023-05-23T10:00:23;100969.38;;;18.38;94.80
11985;BME280;6052;53.246;10.368;2023-05-23T10:02:57;100975.69;;;18.29;95.48
11985;BME280;6052;53.246;10.368;2023-05-23T10:05:33;100973.19;;;18.37;95.52
11985;BME280;6052;53.246;10.368;2023-05-23T10:08:07;100981.06;;;18.44;94.81
11985;BME280;6052;53.246;10.368;2023-05-23T10:11:21;100985.28;;;18.11;95.27
11985;BME280;6052;53.246;10.368;2023-05-23T10:14:06;100995.19;;;18.41;93.40
11985;BME280;6052;53.246;10.368;2023-05-23T10:16:42;101001.00;;;18.24;94.26
11985;BME280;6052;53.246;10.368;2023-05-23T10:19:20;101004.91;;;17.93;95.33
11985;BME280;6052;53.246;10.368;2023-05-23T10:21:57;101007.53;;;18.18;94.16
11985;BME280;6052;53.246;10.368;2023-05-23T10:24:31;101005.81;;;18.37;92.71
11985;BME280;6052;53.246;10.368;2023-05-23T10:27:02;101019.78;;;18.11;92.78
11985;BME280;6052;53.246;10.368;2023-05-23T10:29:32;101024.75;;;17.99;92.87
11985;BME280;6052;53.246;10.368;2023-05-23T10:32:04;101020.19;;;17.69;93.70
11985;BME280;6052;53.246;10.368;2023-05-23T10:34:38;101032.41;;;17.72;94.03
11985;BME280;6052;53.246;10.368;2023-05-23T10:37:11;101038.16;;;17.45;96.32
11985;BME280;6052;53.246;10.368;2023-05-23T10:39:54;101038.13;;;17.70;96.38
11985;BME280;6052;53.246;10.368;2023-05-23T10:42:32;101041.63;;;17.81;95.13
11985;BME280;6052;53.246;10.368;2023-05-23T10:45:14;101042.78;;;17.55;94.86
11985;BME280;6052;53.246;10.368;2023-05-23T10:47:45;101054.72;;;17.64;95.04
11985;BME280;6052;53.246;10.368;2023-05-23T10:50:28;101062.03;;;17.23;95.91
11985;BME280;6052;53.246;10.368;2023-05-23T10:52:59;101063.94;;;17.03;96.56
11985;BME280;6052;53.246;10.368;2023-05-23T10:55:35;101064.25;;;17.46;95.48
11985;BME280;6052;53.246;10.368;2023-05-23T10:58:09;101062.03;;;17.58;94.51
11985;BME280;6052;53.246;10.368;2023-05-23T11:00:49;101071.00;;;17.74;94.51
11985;BME280;6052;53.246;10.368;2023-05-23T11:03:29;101081.25;;;17.92;92.68
11985;BME280;6052;53.246;10.368;2023-05-23T11:06:02;101091.91;;;17.63;93.95
11985;BME280;6052;53.246;10.368;2023-05-23T11:08:39;101089.44;;;17.67;92.86
11985;BME280;6052;53.246;10.368;2023-05-23T11:11:17;101088.09;;;17.59;93.58
11985;BME280;6052;53.246;10.368;2023-05-23T11:13:55;101093.50;;;17.24;93.72
11985;BME280;6052;53.246;10.368;2023-05-23T11:16:27;101104.63;;;17.38;93.60
11985;BME280;6052;53.246;10.368;2023-05-23T11:19:22;101104.34;;;17.04;94.74
11985;BME280;6052;53.246;10.368;2023-05-23T11:21:56;101102.50;;;17.30;92.41
11985;BME280;6052;53.246;10.368;2023-05-23T11:24:47;101099.75;;;17.10;93.18
11985;BME280;6052;53.246;10.368;2023-05-23T11:27:28;101098.69;;;17.16;92.66
11985;BME280;6052;53.246;10.368;2023-05-23T11:30:02;101115.50;;;17.33;92.84
11985;BME280;6052;53.246;10.368;2023-05-23T11:32:32;101114.94;;;17.11;92.78
11985;BME280;6052;53.246;10.368;2023-05-23T11:35:04;101126.25;;;16.78;93.37
11985;BME280;6052;53.246;10.368;2023-05-23T11:37:35;101122.00;;;17.07;92.43
11985;BME280;6052;53.246;10.368;2023-05-23T11:40:24;101130.13;;;17.07;92.31
11985;BME280;6052;53.246;10.368;2023-05-23T11:42:57;101130.13;;;17.02;91.91
11985;BME280;6052;53.246;10.368;2023-05-23T11:45:28;101133.13;;;17.35;90.16
11985;BME280;6052;53.246;10.368;2023-05-23T11:47:57;101147.78;;;17.19;90.60
11985;BME280;6052;53.246;10.368;2023-05-23T11:50:27;101132.31;;;17.05;90.31
11985;BME280;6052;53.246;10.368;2023-05-23T11:52:56;101144.81;;;17.21;89.81
11985;BME280;6052;53.246;10.368;2023-05-23T11:55:26;101146.88;;;16.79;90.25
11985;BME280;6052;53.246;10.368;2023-05-23T11:57:59;101147.25;;;17.12;89.43
11985;BME280;6052;53.246;10.368;2023-05-23T12:00:28;101148.03;;;17.08;89.79
11985;BME280;6052;53.246;10.368;2023-05-23T12:03:05;101148.88;;;17.18;89.27
11985;BME280;6052;53.246;10.368;2023-05-23T12:05:35;101143.19;;;17.15;89.82
11985;BME280;6052;53.246;10.368;2023-05-23T12:08:04;101156.19;;;17.18;89.77
11985;BME280;6052;53.246;10.368;2023-05-23T12:10:34;101148.31;;;17.16;89.88
11985;BME280;6052;53.246;10.368;2023-05-23T12:13:06;101151.78;;;16.92;89.74
11985;BME280;6052;53.246;10.368;2023-05-23T12:15:36;101156.09;;;16.78;89.99
11985;BME280;6052;53.246;10.368;2023-05-23T12:18:07;101156.69;;;16.95;89.56
11985;BME280;6052;53.246;10.368;2023-05-23T12:20:37;101155.91;;;17.09;88.46
11985;BME280;6052;53.246;10.368;2023-05-23T12:23:07;101162.16;;;17.05;88.96
11985;BME280;6052;53.246;10.368;2023-05-23T12:25:38;101158.91;;;17.38;88.52
11985;BME280;6052;53.246;10.368;2023-05-23T12:28:11;101166.69;;;16.84;87.32
11985;BME280;6052;53.246;10.368;2023-05-23T12:30:41;101161.06;;;17.16;85.11
11985;BME280;6052;53.246;10.368;2023-05-23T12:33:11;101170.84;;;17.17;85.47
11985;BME280;6052;53.246;10.368;2023-05-23T12:35:44;101164.34;;;17.28;84.87
11985;BME280;6052;53.246;10.368;2023-05-23T12:38:14;101171.47;;;17.39;85.39
11985;BME280;6052;53.246;10.368;2023-05-23T12:40:45;101168.94;;;17.12;83.99
11985;BME280;6052;53.246;10.368;2023-05-23T12:43:17;101149.94;;;17.12;83.86
11985;BME280;6052;53.246;10.368;2023-05-23T12:45:46;101173.03;;;17.25;83.76
11985;BME280;6052;53.246;10.368;2023-05-23T12:48:16;101171.66;;;17.12;83.51
11985;BME280;6052;53.246;10.368;2023-05-23T12:50:45;101179.88;;;17.47;83.26
11985;BME280;6052;53.246;10.368;2023-05-23T12:53:14;101171.38;;;17.24;81.49
11985;BME280;6052;53.246;10.368;2023-05-23T12:55:44;101170.38;;;17.50;80.36
11985;BME280;6052;53.246;10.368;2023-05-23T12:58:17;101174.41;;;17.22;80.36
11985;BME280;6052;53.246;10.368;2023-05-23T13:00:47;101176.59;;;17.40;79.69
11985;BME280;6052;53.246;10.368;2023-05-23T13:03:16;101185.31;;;17.47;79.63
11985;BME280;6052;53.246;10.368;2023-05-23T13:05:46;101187.66;;;17.19;77.85
11985;BME280;6052;53.246;10.368;2023-05-23T13:08:16;101179.53;;;17.24;78.14
11985;BME280;6052;53.246;10.368;2023-05-23T13:10:46;101192.34;;;17.43;78.51
11985;BME280;6052;53.246;10.368;2023-05-23T13:13:18;101187.13;;;17.22;77.10